Aérodrome :
LOGIN :

S'inscrire | Disclaimer

   EN    FR    IT 

 










Légende :    VFR   VFR Marginal   IFR   IFR Intensif   IFR Très Intensif
Visi : 
Plafond : 
>= 8 km
>= 3000ft
5 à 8 km
1000 à 3000 ft
1500m à 5 km
500 à 1000 ft
800 à 1500m
200 à 500 ft
< 800m
< 200 ft
Symboles :   Orages  Brouillard  Fortes neiges  Fortes précipitations  Vent > 20 kt
SIGMETs :   Divers  Orages  Givrage  Turbulence  Onde Orograph.  Cendres Volcan.






- Altitude de l'aérodrome : -15 ft
- Code IATA : RTM


EHRD - Rotterdam Zestienhoven

DERNIER METAR :
  • 221625Z AUTO 23019KT 9999 FEW012 11/09 Q1017 TEMPO BKN014

METARs EXPIRÉS :
  • 221555Z AUTO 23022G33KT 200V270 9999 FEW013 11/09 Q1017 TEMPO 7000 -DZRA
  • 221525Z AUTO 24021G33KT 200V260 9999 BKN010 BKN014 OVC024 11/09 Q1017 TEMPO 7000 -DZRA
  • 221455Z AUTO 23022KT 190V260 9999 BKN010 BKN013 BKN015 11/09 Q1016 TEMPO 7000 -DZRA
  • 221425Z AUTO 24024G38KT 210V270 9999 SCT013 SCT016 11/09 Q1016 TEMPO 7000 -DZRA BKN013
  • 221355Z AUTO 24024G38KT 9999 SCT011 BKN013 OVC015 11/09 Q1016 TEMPO 7000 -DZRA

TAF TAF EHRD
Valide du 22 à 12h jusqu'au 23 à 18h UTC


221121Z 2212/2318 23028G42KT 7000 BKN014
PROB40
TEMPO 2212/2216 4500 -DZRA BKN008
BECMG 2215/2218 25022G32KT 9999 SCT025
PROB30
TEMPO 2215/2224 7000 -SHRA FEW018TCU BKN022
BECMG 2300/2303 24015KT 7000 RA
BECMG 2302/2305 23010KT 4000 RADZ BKN012
BECMG 2305/2307 18008KT 2500 +RADZ BKN008
BECMG 2307/2310 25030G45KT 7000 -RA
BECMG 2311/2314 30022G33KT 9999 NSW BKN014
BECMG 2314/2317 29015G25KT SCT020



MET'MAP, la Météo Aéronautique d'un coup d'oeil ! - Copyright ORBIFLY Décembre 2007 - Disclaimer

ORBIFLY MET'MAP TEAM :

Programmation & Développement : Alexandra Zaïnal
Sur une idée originale de : Baudouin d'Aumeries
Assistance à la programmation : Marc-Olivier Méhu
Soutien technique & logistique : Manuel Goepfert

Contact : metmap@orbifly.com




SOURCES & CREDITS :

   NOAA